VOZ721 YPAD-YPPH
Flight info
| Callsign | VOZ721 |
|---|---|
| Flight time | 3h 2m |
| Altitude | 38000 |
| Route | AD A585 AREPA H54 KAMBI Q32 NODEV Q10 MALUP Q158 PH |
| Aircraft | B738/M-SDE2E3FGHIRWXY/LB1 |
Departure
| Time | 2025-09-09 09:46 |
|---|---|
| Airport | Adelaide International Airport (YPAD) |
Arrival
| Time | 2025-09-09 12:48 |
|---|---|
| Airport | Perth International Airport (YPPH) |
| Time | Latitude | Longitude | Altitude | Speed | Heading |
|---|---|---|---|---|---|
| 2025-09-09 09:23 | -34.93832 | 138.53995 | 25 ft | 0 kts | 320° |
| 2025-09-09 09:38 | -34.93852 | 138.54015 | 29 ft | 3 kts | 322° |
| 2025-09-09 09:38 | -34.93884 | 138.54044 | 28 ft | 3 kts | 324° |
| 2025-09-09 09:39 | -34.93899 | 138.54057 | 30 ft | 0 kts | 324° |
| 2025-09-09 09:41 | -34.93885 | 138.54063 | 30 ft | 3 kts | 40° |
| 2025-09-09 09:41 | -34.93879 | 138.54107 | 25 ft | 6 kts | 103° |
| 2025-09-09 09:42 | -34.93942 | 138.54188 | 27 ft | 7 kts | 140° |
| 2025-09-09 09:42 | -34.93987 | 138.54234 | 28 ft | 0 kts | 141° |
| 2025-09-09 09:44 | -34.94070 | 138.54290 | 26 ft | 9 kts | 181° |
| 2025-09-09 09:44 | -34.94125 | 138.54239 | 27 ft | 15 kts | 231° |
| 2025-09-09 09:45 | -34.95032 | 138.52904 | 43 ft | 186 kts | 230° |
| 2025-09-09 09:45 | -34.96827 | 138.50252 | 1890 ft | 209 kts | 224° |
| 2025-09-09 09:46 | -34.98823 | 138.47475 | 3940 ft | 226 kts | 232° |
| 2025-09-09 09:46 | -35.00850 | 138.44462 | 6127 ft | 232 kts | 234° |
| 2025-09-09 09:46 | -35.01909 | 138.42900 | 6991 ft | 249 kts | 234° |
| 2025-09-09 09:47 | -35.03983 | 138.37172 | 10277 ft | 256 kts | 282° |
| 2025-09-09 09:47 | -35.03336 | 138.35065 | 10851 ft | 281 kts | 301° |
| 2025-09-09 09:48 | -34.98487 | 138.29845 | 13226 ft | 320 kts | 317° |
| 2025-09-09 09:49 | -34.94648 | 138.27016 | 15093 ft | 334 kts | 334° |
| 2025-09-09 09:49 | -34.90217 | 138.25083 | 16804 ft | 342 kts | 335° |
| 2025-09-09 09:49 | -34.87969 | 138.24103 | 17628 ft | 345 kts | 334° |
| 2025-09-09 09:50 | -34.83419 | 138.22081 | 19107 ft | 351 kts | 334° |
| 2025-09-09 09:50 | -34.78839 | 138.20025 | 20461 ft | 355 kts | 333° |
| 2025-09-09 09:51 | -34.74895 | 138.16667 | 21714 ft | 345 kts | 306° |
| 2025-09-09 09:52 | -34.70819 | 138.09415 | 23521 ft | 350 kts | 301° |
| 2025-09-09 09:52 | -34.68117 | 138.04461 | 24481 ft | 353 kts | 302° |
| 2025-09-09 09:53 | -34.65366 | 137.99498 | 25413 ft | 355 kts | 302° |
| 2025-09-09 09:54 | -34.56684 | 137.81242 | 28162 ft | 366 kts | 283° |
| 2025-09-09 09:57 | -34.52204 | 137.53644 | 31296 ft | 367 kts | 284° |
| 2025-09-09 09:59 | -34.48211 | 137.29810 | 34001 ft | 355 kts | 284° |
| 2025-09-09 10:01 | -34.43750 | 137.03539 | 35887 ft | 354 kts | 284° |
| 2025-09-09 10:03 | -34.40244 | 136.83137 | 37093 ft | 356 kts | 284° |
| 2025-09-09 10:05 | -34.35767 | 136.57391 | 38033 ft | 367 kts | 284° |
| 2025-09-09 10:07 | -34.31961 | 136.35768 | 38036 ft | 382 kts | 284° |
| 2025-09-09 10:09 | -34.27465 | 136.10504 | 38034 ft | 376 kts | 284° |
| 2025-09-09 10:11 | -34.23160 | 135.86621 | 38055 ft | 362 kts | 285° |
| 2025-09-09 10:13 | -34.18806 | 135.62743 | 38058 ft | 367 kts | 285° |
| 2025-09-09 10:15 | -34.14327 | 135.38453 | 38053 ft | 373 kts | 285° |
| 2025-09-09 10:17 | -34.12457 | 135.13369 | 38059 ft | 377 kts | 277° |
| 2025-09-09 10:18 | -34.11317 | 134.91353 | 38061 ft | 376 kts | 277° |
| 2025-09-09 10:21 | -34.09783 | 134.62976 | 38065 ft | 379 kts | 277° |
| 2025-09-09 10:23 | -34.08349 | 134.37486 | 38063 ft | 383 kts | 277° |
| 2025-09-09 10:25 | -34.06844 | 134.11674 | 38073 ft | 387 kts | 277° |
| 2025-09-09 10:27 | -34.05277 | 133.85740 | 38074 ft | 388 kts | 277° |
| 2025-09-09 10:29 | -34.03651 | 133.59761 | 38080 ft | 389 kts | 277° |
| 2025-09-09 10:31 | -34.01964 | 133.33684 | 38085 ft | 391 kts | 277° |
| 2025-09-09 10:33 | -34.00212 | 133.07483 | 38088 ft | 393 kts | 277° |
| 2025-09-09 10:35 | -33.98350 | 132.80501 | 38096 ft | 416 kts | 274° |
| 2025-09-09 10:37 | -33.96358 | 132.52563 | 38101 ft | 417 kts | 274° |
| 2025-09-09 10:38 | -33.94590 | 132.28477 | 38096 ft | 409 kts | 274° |
| 2025-09-09 10:41 | -33.92281 | 131.97952 | 38104 ft | 407 kts | 274° |
| 2025-09-09 10:42 | -33.90421 | 131.74078 | 38103 ft | 411 kts | 274° |
| 2025-09-09 10:45 | -33.87941 | 131.43187 | 38112 ft | 413 kts | 274° |
| 2025-09-09 10:46 | -33.85935 | 131.19163 | 38121 ft | 411 kts | 274° |
| 2025-09-09 10:49 | -33.83313 | 130.88543 | 38141 ft | 408 kts | 274° |
| 2025-09-09 10:50 | -33.81228 | 130.64815 | 38159 ft | 408 kts | 274° |
| 2025-09-09 10:53 | -33.78474 | 130.34257 | 38174 ft | 410 kts | 274° |
| 2025-09-09 10:54 | -33.76259 | 130.10262 | 38197 ft | 421 kts | 274° |
| 2025-09-09 10:57 | -33.73332 | 129.79335 | 38210 ft | 434 kts | 275° |
| 2025-09-09 10:58 | -33.70893 | 129.54185 | 38220 ft | 433 kts | 275° |
| 2025-09-09 11:01 | -33.67330 | 129.18368 | 38246 ft | 432 kts | 275° |
| 2025-09-09 11:02 | -33.65145 | 128.96918 | 38253 ft | 431 kts | 275° |
| 2025-09-09 11:05 | -33.61819 | 128.64959 | 38261 ft | 428 kts | 275° |
| 2025-09-09 11:06 | -33.59193 | 128.40277 | 38278 ft | 425 kts | 275° |
| 2025-09-09 11:09 | -33.55764 | 128.08743 | 38288 ft | 423 kts | 275° |
| 2025-09-09 11:11 | -33.52684 | 127.80848 | 38298 ft | 422 kts | 275° |
| 2025-09-09 11:13 | -33.49561 | 127.53016 | 38310 ft | 421 kts | 275° |
| 2025-09-09 11:15 | -33.46388 | 127.25315 | 38319 ft | 419 kts | 275° |
| 2025-09-09 11:17 | -33.42755 | 126.94264 | 38325 ft | 418 kts | 275° |
| 2025-09-09 11:19 | -33.39880 | 126.70162 | 38335 ft | 417 kts | 275° |
| 2025-09-09 11:21 | -33.36550 | 126.42745 | 38341 ft | 416 kts | 276° |
| 2025-09-09 11:22 | -33.33594 | 126.18827 | 38345 ft | 415 kts | 276° |
| 2025-09-09 11:25 | -33.29734 | 125.88161 | 38357 ft | 415 kts | 276° |
| 2025-09-09 11:27 | -33.26236 | 125.60893 | 38361 ft | 415 kts | 276° |
| 2025-09-09 11:29 | -33.22683 | 125.33685 | 38360 ft | 415 kts | 276° |
| 2025-09-09 11:31 | -33.19073 | 125.06507 | 38376 ft | 415 kts | 277° |
| 2025-09-09 11:33 | -33.15367 | 124.79297 | 38377 ft | 415 kts | 277° |
| 2025-09-09 11:35 | -33.11600 | 124.52143 | 38387 ft | 415 kts | 277° |
| 2025-09-09 11:37 | -33.07776 | 124.25016 | 38402 ft | 415 kts | 278° |
| 2025-09-09 11:39 | -33.03881 | 123.97836 | 38408 ft | 416 kts | 278° |
| 2025-09-09 11:41 | -32.99929 | 123.70688 | 38416 ft | 416 kts | 278° |
| 2025-09-09 11:43 | -32.95914 | 123.43540 | 38420 ft | 417 kts | 278° |
| 2025-09-09 11:45 | -32.92000 | 123.17468 | 38425 ft | 417 kts | 279° |
| 2025-09-09 11:47 | -32.87860 | 122.90299 | 38431 ft | 418 kts | 279° |
| 2025-09-09 11:49 | -32.83659 | 122.63138 | 38439 ft | 418 kts | 279° |
| 2025-09-09 11:51 | -32.79393 | 122.35965 | 38444 ft | 418 kts | 279° |
| 2025-09-09 11:53 | -32.75059 | 122.08760 | 38444 ft | 419 kts | 279° |
| 2025-09-09 11:55 | -32.70900 | 121.81544 | 38452 ft | 419 kts | 276° |
| 2025-09-09 11:57 | -32.68116 | 121.54068 | 38452 ft | 420 kts | 276° |
| 2025-09-09 11:59 | -32.65198 | 121.26575 | 38458 ft | 421 kts | 276° |
| 2025-09-09 12:01 | -32.62209 | 120.98989 | 38461 ft | 422 kts | 276° |
| 2025-09-09 12:02 | -32.59543 | 120.74864 | 38463 ft | 422 kts | 277° |
| 2025-09-09 12:05 | -32.56042 | 120.43808 | 38458 ft | 423 kts | 277° |
| 2025-09-09 12:07 | -32.52859 | 120.16163 | 38463 ft | 424 kts | 277° |
| 2025-09-09 12:09 | -32.49614 | 119.88512 | 38463 ft | 425 kts | 277° |
| 2025-09-09 12:11 | -32.46284 | 119.60818 | 38463 ft | 425 kts | 277° |
| 2025-09-09 12:13 | -32.42913 | 119.33088 | 38461 ft | 426 kts | 274° |
| 2025-09-09 12:14 | -32.42137 | 119.08542 | 38464 ft | 427 kts | 272° |
| 2025-09-09 12:17 | -32.41010 | 118.76958 | 38463 ft | 428 kts | 272° |
| 2025-09-09 12:19 | -32.39937 | 118.48803 | 38463 ft | 429 kts | 272° |
| 2025-09-09 12:21 | -32.38703 | 118.18301 | 35449 ft | 387 kts | 272° |
| 2025-09-09 12:22 | -32.37917 | 117.99737 | 31376 ft | 366 kts | 272° |
| 2025-09-09 12:25 | -32.36763 | 117.73573 | 27662 ft | 344 kts | 273° |
| 2025-09-09 12:27 | -32.33106 | 117.51764 | 24493 ft | 336 kts | 285° |
| 2025-09-09 12:27 | -32.31823 | 117.46478 | 23741 ft | 333 kts | 285° |
| 2025-09-09 12:28 | -32.29929 | 117.38634 | 22536 ft | 328 kts | 285° |
| 2025-09-09 12:28 | -32.28682 | 117.33467 | 21758 ft | 326 kts | 285° |
| 2025-09-09 12:29 | -32.27451 | 117.28375 | 21014 ft | 323 kts | 285° |
| 2025-09-09 12:29 | -32.26834 | 117.25828 | 20646 ft | 322 kts | 284° |
| 2025-09-09 12:30 | -32.25604 | 117.20754 | 19932 ft | 320 kts | 284° |
| 2025-09-09 12:30 | -32.24381 | 117.15718 | 19236 ft | 318 kts | 284° |
| 2025-09-09 12:31 | -32.23163 | 117.10715 | 18538 ft | 316 kts | 284° |
| 2025-09-09 12:31 | -32.21955 | 117.05759 | 17815 ft | 312 kts | 284° |
| 2025-09-09 12:32 | -32.20756 | 117.00848 | 17100 ft | 310 kts | 284° |
| 2025-09-09 12:32 | -32.18978 | 116.93583 | 16084 ft | 306 kts | 285° |
| 2025-09-09 12:33 | -32.17460 | 116.88926 | 15401 ft | 306 kts | 303° |
| 2025-09-09 12:33 | -32.16185 | 116.86940 | 15028 ft | 303 kts | 307° |
| 2025-09-09 12:34 | -32.13548 | 116.83064 | 14078 ft | 302 kts | 307° |
| 2025-09-09 12:34 | -32.10944 | 116.79206 | 13172 ft | 298 kts | 307° |
| 2025-09-09 12:35 | -32.08389 | 116.75383 | 12256 ft | 296 kts | 307° |
| 2025-09-09 12:35 | -32.05028 | 116.70339 | 11163 ft | 290 kts | 307° |
| 2025-09-09 12:36 | -32.02503 | 116.66550 | 10249 ft | 297 kts | 307° |
| 2025-09-09 12:36 | -32.00821 | 116.64026 | 9904 ft | 292 kts | 307° |
| 2025-09-09 12:37 | -31.98742 | 116.60904 | 9340 ft | 291 kts | 307° |
| 2025-09-09 12:37 | -31.96252 | 116.57166 | 8646 ft | 286 kts | 307° |
| 2025-09-09 12:38 | -31.93895 | 116.53485 | 8020 ft | 276 kts | 301° |
| 2025-09-09 12:38 | -31.91975 | 116.49671 | 7440 ft | 269 kts | 299° |
| 2025-09-09 12:39 | -31.90103 | 116.45923 | 6862 ft | 262 kts | 300° |
| 2025-09-09 12:39 | -31.89174 | 116.44092 | 6560 ft | 259 kts | 300° |
| 2025-09-09 12:40 | -31.85531 | 116.36976 | 5432 ft | 254 kts | 301° |
| 2025-09-09 12:40 | -31.83679 | 116.33370 | 5074 ft | 260 kts | 301° |
| 2025-09-09 12:41 | -31.81872 | 116.29854 | 4579 ft | 251 kts | 301° |
| 2025-09-09 12:41 | -31.80974 | 116.28108 | 4314 ft | 248 kts | 301° |
| 2025-09-09 12:42 | -31.79849 | 116.24466 | 3829 ft | 233 kts | 261° |
| 2025-09-09 12:42 | -31.80973 | 116.21430 | 3614 ft | 206 kts | 236° |
| 2025-09-09 12:43 | -31.82404 | 116.18700 | 3408 ft | 190 kts | 235° |
| 2025-09-09 12:43 | -31.84445 | 116.14715 | 3092 ft | 189 kts | 236° |
| 2025-09-09 12:44 | -31.85121 | 116.13391 | 3014 ft | 189 kts | 235° |
| 2025-09-09 12:44 | -31.86488 | 116.10726 | 2580 ft | 192 kts | 235° |
| 2025-09-09 12:45 | -31.87834 | 116.08101 | 2105 ft | 176 kts | 234° |
| 2025-09-09 12:45 | -31.89095 | 116.05649 | 1626 ft | 177 kts | 236° |
| 2025-09-09 12:46 | -31.90331 | 116.03241 | 1141 ft | 159 kts | 236° |
| 2025-09-09 12:46 | -31.91327 | 116.01303 | 805 ft | 127 kts | 236° |
| 2025-09-09 12:47 | -31.92257 | 115.99499 | 465 ft | 133 kts | 235° |
| 2025-09-09 12:47 | -31.93544 | 115.96994 | 52 ft | 108 kts | 236° |
| 2025-09-09 12:48 | -31.93926 | 115.96304 | 53 ft | 21 kts | 206° |
| 2025-09-09 12:48 | -31.94181 | 115.96226 | 56 ft | 18 kts | 193° |
| 2025-09-09 12:49 | -31.94302 | 115.96189 | 56 ft | 18 kts | 196° |
| 2025-09-09 12:49 | -31.94446 | 115.96336 | 61 ft | 16 kts | 99° |
| 2025-09-09 12:50 | -31.94492 | 115.96587 | 59 ft | 15 kts | 104° |
| 2025-09-09 12:50 | -31.94398 | 115.96750 | 62 ft | 14 kts | 13° |
| 2025-09-09 12:51 | -31.94217 | 115.96805 | 60 ft | 12 kts | 25° |
| 2025-09-09 12:51 | -31.94205 | 115.96994 | 61 ft | 5 kts | 59° |
| 2025-09-09 12:52 | -31.94155 | 115.97012 | 62 ft | 0 kts | 12° |